Terminal Aerodrome Forecast
Issued by NWS Spokane, WA

Home | Current Version | Previous Version | Text Only | Print | Product List | Glossary On
Versions: 1 2 3 4 5 6 7 8 9 10 11 12 13 14 15 16
000
FTUS46 KOTX 280521
TAFEAT
TAF
KEAT 280521Z 2806/2906 30014G22KT P6SM FEW200
     FM280900 30012KT P6SM SKC
     FM282300 30017G24KT P6SM SKC=

USA.gov is the U.S. government's official web portal to all federal, state and local government web resources and services.